Chang Sheng — V3PK — position and weather

sailwx.info

Track history (hours):
 
Tides and Currents Weather Stations Pressure Air Temp Water Temp Dewpoint Dewpoint Depression Visibility Wind Speed Wind Dir Waves Ship Positions

Chang Sheng

Last reported at 2014-Nov-18 12:22 UTC. Time now 2014-Nov-24 20:26 UTC.
Position N 33°43' E 129°59'.

Length 86 m; draft 5.7 m.

Type: Cargo ship. MMSI: 312161000.

Date/timePositionNaut miles runAvg speedWind from/ knotsBaromVisibWave heightAir tempDewpointWater temp
2014-Nov-18 12:22N 33°43' E 129°59'14 7.8
2014-Nov-18 10:33N 33°51' E 130°13'  
2014-Nov-15 14:05N 35°08' E 139°42'5 9.2
2014-Nov-15 13:33N 35°12' E 139°46'9 8.7
2014-Nov-15 12:33N 35°20' E 139°43'8 8.4
2014-Nov-15 11:34N 35°27' E 139°48'9 9.1
2014-Nov-15 10:33N 35°32' E 139°58'4 0.1
2014-Nov-13 20:31N 35°33' E 140°02'0 0.0
2014-Nov-13 18:28N 35°33' E 140°02'0 0.0
2014-Nov-13 17:25N 35°33' E 140°02'0 0.0
2014-Nov-13 16:13N 35°33' E 140°02'0 0.0
2014-Nov-13 14:28N 35°33' E 140°02'0 0.0
2014-Nov-13 12:25N 35°33' E 140°02'0 0.0
2014-Nov-12 11:28N 35°33' E 140°02'0 0.0
2014-Nov-12 10:22N 35°33' E 140°02'  
2014-Nov-09 21:16N 35°33' E 140°05'3 4.7
2014-Nov-09 20:33N 35°33' E 140°01'0 0.0
2014-Nov-09 10:29N 35°33' E 140°01'0 0.0
2014-Nov-09 01:25N 35°33' E 140°01'0 0.0
2014-Nov-09 00:32N 35°33' E 140°01'0 0.0
2014-Nov-08 23:28N 35°33' E 140°01'0 0.0
2014-Nov-08 22:33N 35°33' E 140°01'0 0.0
2014-Nov-08 19:21N 35°33' E 140°01'0 0.0
2014-Nov-08 13:22N 35°33' E 140°01'5 5.5
2014-Nov-08 12:28N 35°31' E 139°56'  
Track history (hours):
 
Tides and Currents Weather Stations Pressure Air Temp Water Temp Dewpoint Dewpoint Depression Visibility Wind Speed Wind Dir Waves Ship Positions

Chang Sheng

Last reported at 2014-Nov-18 12:22 UTC. Time now 2014-Nov-24 20:26 UTC.
Position N 33°43' E 129°59'.

Length 86 m; draft 5.7 m.

Type: Cargo ship. MMSI: 312161000.

Date/timePositionNaut miles runAvg speedWind from/ knotsBaromVisibWave heightAir tempDewpointWater temp
2014-Nov-18 12:22N 33°43' E 129°59'14 7.8
2014-Nov-18 10:33N 33°51' E 130°13'  
2014-Nov-15 14:05N 35°08' E 139°42'5 9.2
2014-Nov-15 13:33N 35°12' E 139°46'9 8.7
2014-Nov-15 12:33N 35°20' E 139°43'8 8.4
2014-Nov-15 11:34N 35°27' E 139°48'9 9.1
2014-Nov-15 10:33N 35°32' E 139°58'4 0.1
2014-Nov-13 20:31N 35°33' E 140°02'0 0.0
2014-Nov-13 18:28N 35°33' E 140°02'0 0.0
2014-Nov-13 17:25N 35°33' E 140°02'0 0.0
2014-Nov-13 16:13N 35°33' E 140°02'0 0.0
2014-Nov-13 14:28N 35°33' E 140°02'0 0.0
2014-Nov-13 12:25N 35°33' E 140°02'0 0.0
2014-Nov-12 11:28N 35°33' E 140°02'0 0.0
2014-Nov-12 10:22N 35°33' E 140°02'  
2014-Nov-09 21:16N 35°33' E 140°05'3 4.7
2014-Nov-09 20:33N 35°33' E 140°01'0 0.0
2014-Nov-09 10:29N 35°33' E 140°01'0 0.0
2014-Nov-09 01:25N 35°33' E 140°01'0 0.0
2014-Nov-09 00:32N 35°33' E 140°01'0 0.0
2014-Nov-08 23:28N 35°33' E 140°01'0 0.0
2014-Nov-08 22:33N 35°33' E 140°01'0 0.0
2014-Nov-08 19:21N 35°33' E 140°01'0 0.0
2014-Nov-08 13:22N 35°33' E 140°01'5 5.5
2014-Nov-08 12:28N 35°31' E 139°56'  

Dump ship's entire track history